Vilanova de Sau





Hora UTC 17:00
Temperatura 22.8 ºC
Humitat 49.5 %
Pressió 1023.4 hPa
Pluja 0.0 mm
Velocitat vent 10.3 km/h
Direcció vent ENE
Radiació solar 285.5 W/m²
Fuel 20.7 %

Dades diàries 2020-05-25



Hora UTC (hivern +1h; estiu +2h)
Temperatura (ºC) Humitat (%) Pressió (hPa) Velocitat vent (km/h) Precipitació (mm) Fuel (%) Radiació solar (W/m²)
Hora UTC Aire Humitat Pressió Vel. Dir. Vel. Max Dir. Intent. màx 5 min. Fuel Rad. Sol.
00:05 17.6 80.0 1025.3 0.1 SW 0.1 SW 0.0 35.4 0.0
00:10 17.6 79.4 1025.3 0.0 WSW 3.4 WSW 0.0 35.5 0.0
00:15 17.6 80.0 1025.2 0.0 NNE 0.0 WSW 0.0 35.6 0.0
00:20 17.6 79.7 1025.2 0.5 WSW 3.4 WSW 0.0 35.7 0.0
00:25 17.6 80.2 1025.1 0.2 W 3.4 WSW 0.0 35.8 0.0
00:30 17.6 81.3 1025.1 0.0 NNE 0.0 W 0.0 36.0 0.0
00:35 17.5 82.1 1025.0 0.0 NNE 0.0 W 0.0 36.2 0.0
00:40 17.4 81.6 1025.0 0.0 NNE 0.0 W 0.0 36.2 0.0
00:45 17.5 82.5 1025.0 0.0 NNE 0.0 W 0.0 36.5 0.0
00:50 17.4 83.1 1025.0 0.0 NNE 0.0 W 0.0 36.6 0.0
00:55 17.4 83.2 1025.0 0.0 NNE 0.0 W 0.0 36.8 0.0
01:00 17.3 83.2 1025.0 0.0 NNE 0.0 W 0.0 36.9 0.0
01:05 17.3 83.1 1024.9 0.0 NNE 0.0 WSW 0.0 37.1 0.0
01:10 17.3 82.9 1024.9 0.0 NNE 0.0 WSW 0.0 37.2 0.0
01:15 17.3 83.8 1024.9 0.0 NNE 0.0 SW 0.0 37.4 0.0
01:20 17.3 83.8 1024.9 0.0 NNE 0.0 SW 0.0 37.6 0.0
01:25 17.3 83.9 1024.8 0.0 NNE 0.0 SW 0.0 37.8 0.0
01:30 17.3 83.7 1024.8 0.0 NNE 0.0 S 0.0 37.9 0.0
01:35 17.3 83.9 1024.8 0.0 NNE 0.0 S 0.0 38.1 0.0
01:40 17.2 83.8 1024.7 0.0 NNE 0.0 SW 0.0 38.2 0.0
01:45 17.3 82.6 1024.7 0.0 NNE 0.0 SW 0.0 38.3 0.0
01:50 17.3 83.7 1024.7 0.0 NNE 0.0 SW 0.0 38.4 0.0
01:55 17.2 84.4 1024.6 0.0 NNE 0.0 SW 0.0 38.6 0.0
02:00 17.2 84.4 1024.5 0.0 NNE 0.0 SW 0.0 38.8 0.0
02:05 17.2 83.8 1024.5 0.0 NNE 0.0 SW 0.0 38.9 0.0
02:10 17.2 83.6 1024.5 0.0 NNE 0.0 SW 0.0 39.0 0.0
02:15 17.1 83.0 1024.5 0.0 NNE 0.0 SW 0.0 39.1 0.0
02:20 17.2 82.4 1024.5 0.0 NNE 0.0 SW 0.0 39.2 0.0
02:25 17.1 83.2 1024.4 0.0 NNE 0.0 SW 0.0 39.3 0.0
02:30 17.1 82.9 1024.4 0.0 NNE 0.0 SW 0.0 39.4 0.0
02:35 17.2 83.7 1024.4 0.0 NNE 0.0 SSE 0.0 39.5 0.0
02:40 17.0 84.0 1024.4 0.0 NNE 0.0 SSE 0.0 39.6 0.0
02:45 16.9 84.9 1024.4 0.0 NNE 0.0 ENE 0.0 39.8 0.0
02:50 16.9 84.5 1024.4 0.0 NNE 0.0 ENE 0.0 39.9 0.0
02:55 16.9 84.9 1024.4 0.0 NNE 0.0 ENE 0.0 40.1 0.0
03:00 16.9 86.0 1024.4 0.0 NNE 0.0 ENE 0.0 40.3 0.0
03:05 16.9 85.9 1024.4 0.0 NNE 0.0 ENE 0.0 40.5 0.0
03:10 16.9 85.3 1024.4 0.0 NNE 0.0 ENE 0.0 40.6 0.0
03:15 16.9 85.3 1024.4 0.0 NNE 0.0 SW 0.0 40.8 0.0
03:20 16.9 86.2 1024.3 0.0 NNE 0.0 SW 0.0 41.0 0.0
03:25 16.8 85.2 1024.3 0.0 NNE 0.0 SW 0.0 41.0 0.0
03:30 16.8 85.4 1024.3 0.0 NNE 0.0 SW 0.0 41.2 0.0
03:35 16.8 86.3 1024.3 0.0 NNE 0.0 SW 0.0 41.4 0.0
03:40 16.8 86.0 1024.3 0.0 NNE 0.0 SW 0.0 41.5 0.0
03:45 16.8 85.9 1024.2 0.0 NNE 0.0 SW 0.0 41.7 0.0
03:50 16.7 85.7 1024.2 0.0 NNE 0.0 SW 0.0 41.8 0.0
03:55 16.8 86.2 1024.2 0.0 NNE 0.0 SW 0.0 42.0 0.0
04:00 16.7 86.0 1024.2 0.0 NNE 0.0 SW 0.0 42.1 0.0
04:05 16.7 85.7 1024.3 0.0 NNE 0.0 SW 0.0 42.2 0.0
04:10 16.6 86.0 1024.3 0.0 NNE 0.0 SE 0.0 42.3 0.3
04:15 16.7 86.2 1024.3 0.0 NNE 0.0 SE 0.0 42.5 1.2
04:20 16.5 85.5 1024.2 0.0 NNE 0.0 ESE 0.0 42.5 3.3
04:25 16.6 85.6 1024.3 0.0 NNE 0.0 NE 0.0 42.7 4.2
04:30 16.6 86.0 1024.3 0.0 NNE 0.0 NNW 0.0 42.8 5.6
04:35 16.6 85.0 1024.4 0.0 NNE 0.0 NE 0.0 42.9 8.2
04:40 16.5 84.4 1024.4 0.0 NNE 0.0 NE 0.0 42.9 10.9
04:45 16.5 84.6 1024.5 0.0 NNE 0.0 NE 0.0 43.0 13.6
04:50 16.5 84.3 1024.5 0.0 NNE 0.0 NE 0.0 43.0 14.2
04:55 16.6 83.9 1024.5 0.0 NNE 0.0 NE 0.0 43.1 14.0
05:00 16.6 84.0 1024.6 0.6 WSW 3.4 SW 0.0 43.2 14.3
05:05 16.7 84.6 1024.6 0.0 WSW 3.4 WSW 0.0 43.3 20.1
05:10 16.7 84.8 1024.6 0.0 NNE 0.0 WSW 0.0 43.4 21.8
05:15 16.6 85.3 1024.7 0.0 NNE 0.0 ENE 0.0 43.5 25.4
05:20 16.6 84.1 1024.7 0.0 NNE 0.0 ENE 0.0 43.5 21.6
05:25 16.7 84.9 1024.7 0.0 NNE 0.0 SW 0.0 43.6 21.2
05:30 16.8 85.0 1024.7 0.0 NNE 0.0 SSW 0.0 43.8 22.1
05:35 16.8 84.5 1024.8 0.0 NNE 0.0 SW 0.0 43.8 25.2
05:40 16.9 83.6 1024.8 0.0 WSW 3.4 W 0.0 43.8 26.6
05:45 17.0 84.3 1024.8 0.3 NW 3.4 NW 0.0 44.0 22.2
05:50 17.0 83.4 1024.8 0.5 S 3.4 WNW 0.0 44.0 20.2
05:55 17.1 83.8 1024.9 0.0 NNE 0.0 S 0.0 44.1 28.1
06:00 17.1 85.1 1024.9 0.5 ENE 3.4 ENE 0.0 44.2 46.5
06:05 17.0 85.1 1024.9 0.0 NNE 0.0 ENE 0.0 44.3 50.0
06:10 17.0 84.4 1025.0 0.0 SW 3.4 SW 0.0 44.4 66.9
06:15 17.2 83.2 1025.0 1.5 W 8.8 WNW 0.0 44.4 94.8
06:20 17.6 76.8 1025.1 1.9 WSW 8.8 WNW 0.0 44.2 104.3
06:25 18.0 73.2 1025.1 0.4 SSE 6.1 S 0.0 43.9 98.3
06:30 18.2 68.2 1025.1 1.1 S 6.1 SSW 0.0 43.3 97.8
06:35 18.4 68.4 1025.0 2.9 W 8.8 SSE 0.0 42.9 105.4
06:40 18.4 67.7 1025.1 5.7 WSW 11.5 SW 0.0 42.4 105.4
06:45 18.4 67.5 1025.1 5.6 SW 11.5 S 0.0 42.0 102.4
06:50 18.4 67.1 1025.1 2.9 WSW 6.1 WSW 0.0 41.6 106.5
06:55 18.5 66.7 1025.1 3.2 SW 8.8 SW 0.0 41.4 107.7
07:00 18.6 67.7 1025.1 1.6 SW 6.1 WNW 0.0 41.1 111.7
07:05 18.7 68.2 1025.2 2.4 WSW 8.8 W 0.0 41.0 131.5
07:10 18.6 66.3 1025.1 4.9 WSW 11.5 W 0.0 40.6 145.8
07:15 18.6 66.0 1025.2 4.9 W 11.5 WSW 0.0 40.3 145.3
07:20 18.6 66.4 1025.2 3.6 W 8.8 SW 0.0 40.0 147.0
07:25 18.6 64.8 1025.2 5.3 WSW 11.5 WSW 0.0 39.6 150.1
07:30 18.7 65.1 1025.2 3.3 WSW 6.1 WSW 0.0 39.4 146.8
07:35 18.7 65.1 1025.2 6.9 WSW 14.2 WSW 0.0 39.1 187.2
07:40 18.6 65.6 1025.2 5.8 W 11.5 WSW 0.0 38.9 213.3
07:45 18.7 66.1 1025.2 4.5 WSW 8.8 W 0.0 38.8 224.1
07:50 18.8 65.3 1025.1 4.3 W 8.8 NW 0.0 38.6 226.8
07:55 19.2 64.6 1025.1 0.0 NNE 0.0 SSW 0.0 38.5 196.5
08:00 19.6 63.5 1025.1 0.6 W 3.4 ESE 0.0 38.3 232.7
08:05 19.9 58.5 1025.1 0.3 W 3.4 WSW 0.0 38.1 315.9
08:10 20.2 58.6 1025.0 0.1 W 3.4 W 0.0 38.2 526.6
08:15 20.5 58.2 1025.0 0.0 NNE 0.0 ENE 0.0 37.3 371.7
08:20 20.5 58.2 1024.9 3.1 NNE 8.8 ENE 0.0 36.6 491.6
08:25 20.7 58.8 1024.9 1.3 NE 6.1 NE 0.0 36.8 605.6
08:30 21.3 53.7 1024.9 1.5 NNE 6.1 NE 0.0 35.5 558.3
08:35 21.6 55.0 1024.9 3.3 NNE 6.1 ENE 0.0 34.6 609.4
08:40 21.6 54.5 1024.9 2.1 N 6.1 ENE 0.0 34.0 643.9
08:45 21.7 53.3 1024.9 1.4 WNW 6.1 WSW 0.0 33.3 719.4
08:50 22.3 51.5 1024.9 0.7 ENE 6.1 SSE 0.0 32.0 528.6
08:55 22.0 54.1 1025.0 5.3 NE 11.5 NE 0.0 30.9 771.6
09:00 21.6 55.9 1025.0 6.9 NE 11.5 ENE 0.0 30.3 895.0
09:05 21.9 53.9 1025.0 3.3 NNE 8.8 NE 0.0 29.8 753.7
09:10 22.1 54.8 1025.0 4.1 ENE 11.5 NE 0.0 29.3 982.0
09:15 21.9 55.2 1025.0 3.7 NE 11.5 NNW 0.0 28.0 679.8
09:20 22.1 55.3 1025.0 2.6 SSE 6.1 NNE 0.0 26.7 367.3
09:25 21.7 55.8 1025.1 2.6 WNW 11.5 WNW 0.0 25.7 306.0
09:30 21.4 59.7 1025.2 3.2 NE 8.8 NE 0.0 25.4 334.2
09:35 21.4 59.8 1025.2 2.7 NE 8.8 NE 0.0 25.8 352.6
09:40 21.3 60.6 1025.2 4.5 ENE 8.8 ENE 0.0 25.6 327.2
09:45 21.2 60.3 1025.2 2.3 NNE 8.8 N 0.0 25.7 364.5
09:50 21.5 59.6 1025.3 4.2 W 11.5 W 0.0 26.0 392.3
09:55 21.7 59.6 1025.3 3.0 NNE 8.8 W 0.0 26.0 401.1
10:00 21.8 58.6 1025.3 3.5 N 8.8 N 0.0 25.9 442.8
10:05 21.6 58.6 1025.2 4.4 NE 8.8 N 0.0 25.8 433.9
10:10 21.7 59.3 1025.2 3.0 NNW 8.8 NE 0.0 25.8 426.1
10:15 21.7 58.3 1025.2 1.7 NW 6.1 W 0.0 25.6 422.2
10:20 21.9 57.7 1025.2 1.8 NNW 6.1 SW 0.0 25.5 442.0
10:25 22.1 58.3 1025.1 2.4 NE 8.8 N 0.0 25.5 454.9
10:30 22.0 58.4 1025.1 3.8 NE 6.1 E 0.0 25.3 447.2
10:35 22.0 58.9 1025.1 3.2 NE 11.5 NNE 0.0 24.8 285.8
10:40 21.8 60.2 1025.2 5.3 NE 11.5 NNE 0.0 24.2 225.0
10:45 21.6 60.8 1025.2 3.6 NNE 8.8 NNE 0.0 24.3 236.7
10:50 21.6 61.3 1025.1 2.5 NE 8.8 NNE 0.0 24.5 269.2
10:55 21.6 61.2 1025.1 4.4 N 11.5 NNE 0.0 24.4 262.7
11:00 21.6 61.0 1025.1 1.0 NNW 6.1 W 0.0 24.5 292.9
11:05 21.9 60.2 1025.1 3.1 N 8.8 NW 0.0 24.9 348.5
11:10 21.9 59.8 1025.1 3.9 NNE 8.8 N 0.0 24.8 366.6
11:15 21.9 59.8 1025.0 3.3 NE 8.8 NE 0.0 24.8 376.3
11:20 21.9 60.1 1025.0 3.4 NE 8.8 ENE 0.0 24.8 416.8
11:25 21.9 61.7 1025.0 5.7 ENE 8.8 NE 0.0 24.7 398.1
11:30 21.5 63.0 1025.0 7.4 ENE 11.5 ENE 0.0 24.4 380.6
11:35 21.6 62.5 1025.0 4.4 NNE 11.5 NE 0.0 24.4 324.5
11:40 21.6 62.8 1025.1 5.8 ENE 11.5 ENE 0.0 24.3 299.9
11:45 21.4 62.1 1025.0 5.2 ENE 11.5 E 0.0 24.2 322.0
11:50 21.3 62.9 1025.0 5.8 E 11.5 E 0.0 24.2 312.5
11:55 21.3 63.5 1025.0 7.0 ENE 11.5 ENE 0.0 24.2 292.4
12:00 21.2 63.9 1025.0 7.4 ENE 11.5 ENE 0.0 24.1 285.6
12:05 21.2 63.6 1025.0 6.2 ENE 11.5 ENE 0.0 24.2 294.6
12:10 21.3 63.5 1025.0 5.0 NE 11.5 NNE 0.0 24.4 316.5
12:15 21.5 62.6 1025.0 5.7 NE 11.5 NE 0.0 24.4 292.7
12:20 21.4 62.7 1025.0 5.8 ENE 8.8 ENE 0.0 24.4 307.0
12:25 21.5 61.7 1024.9 4.8 ENE 8.8 ENE 0.0 24.5 360.4
12:30 21.7 62.0 1024.9 5.2 ENE 8.8 E 0.0 24.7 407.8
12:35 21.8 61.1 1024.8 5.5 ENE 11.5 ENE 0.0 24.7 423.0
12:40 21.9 60.1 1024.8 4.9 ENE 8.8 E 0.0 24.7 457.5
12:45 22.0 60.0 1024.7 3.2 E 6.1 ESE 0.0 24.7 511.0
12:50 22.3 58.9 1024.7 3.3 ENE 6.1 ENE 0.0 24.9 520.4
12:55 22.5 57.2 1024.6 0.6 NW 6.1 WNW 0.0 24.9 483.5
13:00 22.5 56.9 1024.6 2.0 WSW 6.1 WSW 0.0 24.4 459.7
13:05 22.9 56.3 1024.5 2.0 WSW 6.1 WSW 0.0 24.0 485.5
13:10 23.0 56.5 1024.5 1.2 S 6.1 S 0.0 24.1 474.0
13:15 23.3 55.5 1024.4 0.8 S 6.1 ESE 0.0 23.7 417.3
13:20 23.5 55.5 1024.4 1.8 ESE 6.1 SW 0.0 23.4 369.7
13:25 23.2 56.1 1024.4 2.6 SE 8.8 ESE 0.0 23.1 326.8
13:30 23.4 54.8 1024.4 0.9 SSW 6.1 WSW 0.0 23.1 335.6
13:35 23.2 56.2 1024.4 3.3 WSW 6.1 W 0.0 23.0 388.1
13:40 23.3 55.4 1024.4 0.4 SW 6.1 SSW 0.0 23.1 400.3
13:45 23.6 55.6 1024.3 2.0 NE 8.8 ENE 0.0 23.1 435.1
13:50 23.2 56.1 1024.3 3.5 ENE 8.8 NE 0.0 22.7 440.2
13:55 23.1 56.4 1024.2 4.0 NE 8.8 ENE 0.0 22.5 396.6
14:00 22.8 56.5 1024.2 3.7 ENE 8.8 ENE 0.0 22.2 367.9
14:05 22.8 57.7 1024.2 4.7 ENE 8.8 ESE 0.0 22.2 344.7
14:10 22.8 57.8 1024.2 2.5 NNE 8.8 NNE 0.0 22.1 314.9
14:15 23.1 57.0 1024.1 1.7 E 6.1 ENE 0.0 22.3 317.3
14:20 23.2 55.8 1024.1 0.8 NE 6.1 NE 0.0 22.4 342.0
14:25 23.5 55.4 1024.1 2.7 ESE 6.1 E 0.0 22.4 377.2
14:30 23.3 58.1 1024.0 3.3 SE 8.8 SE 0.0 22.5 551.2
14:35 23.5 56.7 1023.9 5.5 SSW 11.5 SW 0.0 22.2 414.7
14:40 23.6 55.3 1023.9 3.1 SSW 6.1 WSW 0.0 22.2 451.7
14:45 23.7 56.5 1023.9 0.0 NNE 0.0 SW 0.0 22.1 336.6
14:50 23.6 55.6 1023.8 3.5 S 6.1 WSW 0.0 21.9 296.0
14:55 23.5 56.5 1023.8 2.2 ESE 8.8 SSE 0.0 21.9 407.9
15:00 23.6 55.5 1023.8 4.6 SW 8.8 WSW 0.0 21.8 313.6
15:05 23.3 56.3 1023.8 1.0 E 6.1 E 0.0 21.5 264.5
15:10 23.1 58.3 1023.8 2.2 E 8.8 ESE 0.0 21.3 188.1
15:15 22.9 58.9 1023.9 4.6 ENE 8.8 ENE 0.0 21.2 166.1
15:20 22.8 60.9 1023.9 3.6 ENE 8.8 ENE 0.0 21.3 153.0
15:25 22.6 60.7 1023.9 5.8 ENE 8.8 ENE 0.0 21.3 164.1
15:30 22.4 60.2 1023.8 5.1 ENE 8.8 ENE 0.0 21.4 172.3
15:35 22.5 59.3 1023.9 2.5 ENE 6.1 ENE 0.0 21.5 180.7
15:40 22.5 56.0 1023.8 6.4 NE 11.5 NNE 0.0 21.5 196.2
15:45 22.5 54.0 1023.8 5.4 NE 8.8 ENE 0.0 21.4 207.3
15:50 22.5 55.8 1023.8 3.8 NE 6.1 ENE 0.0 21.4 204.5
15:55 22.6 53.8 1023.8 3.6 NE 8.8 NE 0.0 21.3 204.1
16:00 22.6 55.0 1023.7 4.0 ENE 8.8 E 0.0 21.2 181.3
16:05 22.5 55.5 1023.7 3.9 NE 8.8 ENE 0.0 21.1 162.7
16:10 22.4 54.8 1023.7 5.0 NE 8.8 NNE 0.0 20.9 124.2
16:15 22.4 54.8 1023.7 4.0 NE 8.8 NE 0.0 21.6 416.0
16:20 22.8 52.3 1023.7 3.0 NE 8.8 ENE 0.0 22.1 401.8
16:25 23.3 50.6 1023.6 0.1 NNE 3.4 NNE 0.0 22.1 342.3
16:30 23.8 52.8 1023.6 3.4 SW 8.8 SW 0.0 21.7 352.8
16:35 23.5 56.3 1023.5 4.4 WSW 8.8 W 0.0 21.7 359.6
16:40 23.7 55.9 1023.5 0.0 NNE 0.0 SW 0.0 22.0 349.1
16:45 23.7 50.2 1023.5 5.6 E 14.2 ENE 0.0 21.7 334.6
16:50 23.3 49.3 1023.5 10.1 ENE 16.9 ENE 0.0 21.2 289.2
16:55 23.0 49.9 1023.4 9.4 ENE 16.9 ENE 0.0 20.9 303.4
17:00 22.8 49.5 1023.4 10.3 ENE 16.9 ENE 0.0 20.7 285.5
Màxima 23.9 86.3 1025.3 10.3 ENE 16.9 ENE 0.0 44.4 982.0
Mínima 16.5 49.3 1023.4 20.7
Total 0.0